createdAt,value
2019-01-16T00:02:12.655Z,2.67
2019-01-16T00:04:59.703Z,2.90
2019-01-16T00:07:43.973Z,2.60
2019-01-16T00:10:32.353Z,2.60
2019-01-16T00:13:15.534Z,2.63
2019-01-16T00:15:59.471Z,2.83
2019-01-16T00:18:46.744Z,2.70
2019-01-16T00:21:50.521Z,2.63
2019-01-16T00:24:38.906Z,2.70
2019-01-16T00:27:27.306Z,2.83
2019-01-16T00:30:07.842Z,2.40
2019-01-16T00:32:54.865Z,2.50
2019-01-16T00:35:44.178Z,2.53
2019-01-16T00:38:47.869Z,2.53
2019-01-16T00:41:54.443Z,2.60
2019-01-16T00:44:41.600Z,2.80
2019-01-16T00:47:30.805Z,2.60
2019-01-16T00:50:23.174Z,2.90
2019-01-16T00:53:11.606Z,2.27
2019-01-16T00:56:05.861Z,2.90
2019-01-16T00:59:03.487Z,2.80
2019-01-16T01:01:50.682Z,2.33
2019-01-16T01:04:39.121Z,2.30
2019-01-16T01:07:26.486Z,2.10
2019-01-16T01:10:07.525Z,2.50
2019-01-16T01:12:55.914Z,2.30
2019-01-16T01:15:43.331Z,2.20
2019-01-16T01:18:21.838Z,2.47
2019-01-16T01:21:11.006Z,2.30
2019-01-16T01:23:59.411Z,2.57
2019-01-16T01:26:42.353Z,2.30
2019-01-16T01:29:22.323Z,2.37
2019-01-16T01:32:19.633Z,2.03
2019-01-16T01:35:15.528Z,2.50
2019-01-16T01:38:18.905Z,1.90
2019-01-16T01:41:07.086Z,2.03
2019-01-16T01:43:55.905Z,2.17
2019-01-16T01:46:50.090Z,1.90
2019-01-16T01:49:30.950Z,1.97
2019-01-16T01:52:19.367Z,2.30
2019-01-16T01:55:10.793Z,1.90
2019-01-16T01:57:51.715Z,2.17
2019-01-16T02:00:38.407Z,1.70
2019-01-16T02:03:38.901Z,1.90
2019-01-16T02:06:49.314Z,1.73
2019-01-16T02:09:53.547Z,2.00
2019-01-16T02:12:32.970Z,1.67
2019-01-16T02:15:21.280Z,2.00
2019-01-16T02:18:12.636Z,1.90
2019-01-16T02:21:00.065Z,1.70
2019-01-16T02:24:06.959Z,1.47
2019-01-16T02:27:01.242Z,1.80
2019-01-16T02:29:49.671Z,1.60
2019-01-16T02:32:53.492Z,1.70
2019-01-16T02:35:40.234Z,1.43
2019-01-16T02:38:27.350Z,1.40
2019-01-16T02:41:08.780Z,1.80
2019-01-16T02:44:03.253Z,1.50
2019-01-16T02:46:44.562Z,1.97
2019-01-16T02:49:31.560Z,1.60
2019-01-16T02:52:16.723Z,1.40
2019-01-16T02:55:11.948Z,1.60
2019-01-16T02:57:49.971Z,1.63
2019-01-16T03:00:36.282Z,1.70
2019-01-16T03:03:36.936Z,1.60
2019-01-16T03:06:25.449Z,1.47
2019-01-16T03:09:13.836Z,1.33
2019-01-16T03:11:56.520Z,1.50
2019-01-16T03:14:38.101Z,1.60
2019-01-16T03:17:32.295Z,1.53
2019-01-16T03:20:22.271Z,1.60
2019-01-16T03:23:25.906Z,2.00
2019-01-16T03:26:20.109Z,1.70
2019-01-16T03:29:02.700Z,1.73
2019-01-16T03:31:40.983Z,1.50
2019-01-16T03:34:28.466Z,2.03
2019-01-16T03:37:31.090Z,1.67
2019-01-16T03:40:18.376Z,1.60
2019-01-16T03:43:02.286Z,1.70
2019-01-16T03:45:53.436Z,1.30
2019-01-16T03:48:48.565Z,1.80
2019-01-16T03:51:43.109Z,1.83
2019-01-16T03:54:43.691Z,2.30
2019-01-16T03:57:41.003Z,2.60
2019-01-16T04:00:40.716Z,2.60
2019-01-16T04:03:27.738Z,3.53
2019-01-16T04:06:19.195Z,2.40
2019-01-16T04:09:26.088Z,3.53
2019-01-16T04:12:20.549Z,3.40
2019-01-16T04:15:14.624Z,2.73
2019-01-16T04:17:57.612Z,2.73
2019-01-16T04:20:53.659Z,2.47
2019-01-16T04:23:54.378Z,2.50
2019-01-16T04:26:42.837Z,2.50
2019-01-16T04:29:31.341Z,2.40
2019-01-16T04:32:11.951Z,2.77
2019-01-16T04:34:58.999Z,3.00
2019-01-16T04:37:57.666Z,2.97
2019-01-16T04:40:39.952Z,2.90
2019-01-16T04:43:20.441Z,2.80
2019-01-16T04:46:07.467Z,3.47
2019-01-16T04:48:46.379Z,3.20
2019-01-16T04:51:34.791Z,3.30
2019-01-16T04:54:41.751Z,3.67
2019-01-16T04:57:42.275Z,3.70
2019-01-16T05:00:23.930Z,3.43
2019-01-16T05:03:14.520Z,3.53
2019-01-16T05:06:17.379Z,3.30
2019-01-16T05:09:04.759Z,3.23
2019-01-16T05:11:52.375Z,4.17
2019-01-16T05:14:37.833Z,3.70
2019-01-16T05:17:32.056Z,4.03
2019-01-16T05:20:32.462Z,4.47
2019-01-16T05:23:10.663Z,4.40
2019-01-16T05:25:57.798Z,4.60
2019-01-16T05:28:55.262Z,4.67
2019-01-16T05:31:49.587Z,4.33
2019-01-16T05:34:36.956Z,4.80
2019-01-16T05:37:25.366Z,5.63
2019-01-16T05:40:08.721Z,5.70
2019-01-16T05:43:00.044Z,6.07
2019-01-16T05:45:58.483Z,5.40
2019-01-16T05:48:42.171Z,5.90
2019-01-16T05:51:29.416Z,5.83
2019-01-16T05:54:36.287Z,6.43
2019-01-16T05:57:23.593Z,5.87
2019-01-16T06:00:12.774Z,5.70
2019-01-16T06:03:10.144Z,5.30
2019-01-16T06:06:01.654Z,5.40
2019-01-16T06:08:59.173Z,4.40
2019-01-16T06:11:50.475Z,5.57
2019-01-16T06:14:47.972Z,4.80
2019-01-16T06:17:36.456Z,5.60
2019-01-16T06:20:33.332Z,5.00
2019-01-16T06:23:20.331Z,5.40
2019-01-16T06:26:01.166Z,4.07
2019-01-16T06:28:58.746Z,5.27
2019-01-16T06:31:46.184Z,5.70
2019-01-16T06:34:33.301Z,5.37
2019-01-16T06:37:21.810Z,5.03
2019-01-16T06:40:19.975Z,4.57
2019-01-16T06:43:08.361Z,5.70
2019-01-16T06:46:05.939Z,6.03
2019-01-16T06:49:02.995Z,6.33
2019-01-16T06:51:47.176Z,5.83
2019-01-16T06:54:41.496Z,5.20
2019-01-16T06:57:35.734Z,6.50
2019-01-16T07:00:36.081Z,6.07
2019-01-16T07:03:40.015Z,5.87
2019-01-16T07:06:40.969Z,5.47
2019-01-16T07:09:39.589Z,5.93
2019-01-16T07:12:27.993Z,6.10
2019-01-16T07:15:19.530Z,5.60
2019-01-16T07:18:23.070Z,5.10
2019-01-16T07:21:26.435Z,5.40
2019-01-16T07:24:13.688Z,5.50
2019-01-16T07:27:05.225Z,5.70
2019-01-16T07:30:09.878Z,5.97
2019-01-16T07:32:58.271Z,6.17
2019-01-16T07:35:52.640Z,6.13
2019-01-16T07:38:56.224Z,6.20
2019-01-16T07:41:44.746Z,6.30
2019-01-16T07:44:27.639Z,6.73
2019-01-16T07:47:16.065Z,6.90
2019-01-16T07:50:03.095Z,5.30
2019-01-16T07:53:00.711Z,5.07
2019-01-16T07:55:53.001Z,6.27
2019-01-16T07:58:41.435Z,7.20
2019-01-16T08:01:36.039Z,7.07
2019-01-16T08:04:23.051Z,7.23
2019-01-16T08:07:23.631Z,7.20
2019-01-16T08:10:11.988Z,5.57
2019-01-16T08:13:18.684Z,5.00
2019-01-16T08:16:05.973Z,6.33
2019-01-16T08:18:57.571Z,5.40
2019-01-16T08:21:44.701Z,5.37
2019-01-16T08:24:33.118Z,5.93
2019-01-16T08:27:18.842Z,3.57
2019-01-16T08:30:14.924Z,4.37
2019-01-16T08:32:52.371Z,4.00
2019-01-16T08:35:40.769Z,2.17
2019-01-16T08:38:44.477Z,2.17
2019-01-16T08:41:31.824Z,2.17
2019-01-16T08:44:19.259Z,2.10
2019-01-16T08:47:20.070Z,2.57
2019-01-16T08:50:07.239Z,1.80
2019-01-16T08:52:54.713Z,1.80
2019-01-16T08:55:45.943Z,2.23
2019-01-16T08:58:37.308Z,2.10
2019-01-16T09:01:37.949Z,1.93
2019-01-16T09:04:31.910Z,2.17
2019-01-16T09:07:19.292Z,2.27
2019-01-16T09:10:06.286Z,1.80
2019-01-16T09:13:04.026Z,2.20
2019-01-16T09:16:07.607Z,1.90
2019-01-16T09:18:53.639Z,1.80
2019-01-16T09:21:40.943Z,1.70
2019-01-16T09:24:21.659Z,2.23
2019-01-16T09:27:12.977Z,2.10
2019-01-16T09:29:55.438Z,3.07
2019-01-16T09:32:42.928Z,1.90
2019-01-16T09:35:30.178Z,2.43
2019-01-16T09:38:21.364Z,2.00
2019-01-16T09:41:14.266Z,2.30
2019-01-16T09:43:53.685Z,2.33
2019-01-16T09:46:41.914Z,2.20
2019-01-16T09:49:29.136Z,2.57
2019-01-16T09:52:14.466Z,2.20
2019-01-16T09:55:02.873Z,2.73
2019-01-16T09:57:50.428Z,2.30
2019-01-16T10:00:38.253Z,2.53
2019-01-16T10:03:33.223Z,2.30
2019-01-16T10:06:21.649Z,2.37
2019-01-16T10:09:10.135Z,2.30
2019-01-16T10:12:00.666Z,2.30
2019-01-16T10:15:04.228Z,2.40
2019-01-16T10:17:51.350Z,2.23
2019-01-16T10:20:33.664Z,2.00
2019-01-16T10:23:22.085Z,2.07
2019-01-16T10:26:16.883Z,2.30
2019-01-16T10:29:16.835Z,3.00
2019-01-16T10:32:00.895Z,2.63
2019-01-16T10:34:48.084Z,2.43
2019-01-16T10:37:33.225Z,2.43
2019-01-16T10:40:20.265Z,2.60
2019-01-16T10:43:08.219Z,2.80
2019-01-16T10:45:59.799Z,2.83
2019-01-16T10:48:57.317Z,2.40
2019-01-16T10:51:57.875Z,2.80
2019-01-16T10:54:49.317Z,2.40
2019-01-16T10:57:36.603Z,2.73
2019-01-16T11:00:33.708Z,2.50
2019-01-16T11:03:40.516Z,3.07
2019-01-16T11:06:27.366Z,2.73
2019-01-16T11:09:23.747Z,2.47
2019-01-16T11:12:10.832Z,2.30
2019-01-16T11:14:58.137Z,1.97
2019-01-16T11:17:55.513Z,1.83
2019-01-16T11:20:48.904Z,1.80
2019-01-16T11:23:36.255Z,1.90
2019-01-16T11:26:36.716Z,2.10
2019-01-16T11:29:31.465Z,2.37
2019-01-16T11:32:16.593Z,2.00
2019-01-16T11:35:08.513Z,1.90
2019-01-16T11:38:00.137Z,1.83
2019-01-16T11:40:44.259Z,1.90
2019-01-16T11:43:48.064Z,1.93
2019-01-16T11:46:26.723Z,1.80
2019-01-16T11:49:18.202Z,1.90
2019-01-16T11:52:05.596Z,1.90
2019-01-16T11:54:57.025Z,1.90
2019-01-16T11:57:57.834Z,2.13
2019-01-16T12:00:51.199Z,2.33
2019-01-16T12:03:37.084Z,2.00
2019-01-16T12:06:25.731Z,1.87
2019-01-16T12:09:14.303Z,1.83
2019-01-16T12:12:02.718Z,1.90
2019-01-16T12:14:50.051Z,1.80
2019-01-16T12:17:50.353Z,1.40
2019-01-16T12:20:41.592Z,1.40
2019-01-16T12:23:42.254Z,1.60
2019-01-16T12:26:30.163Z,1.53
2019-01-16T12:29:30.718Z,1.63
2019-01-16T12:32:31.211Z,1.70
2019-01-16T12:35:18.403Z,1.47
2019-01-16T12:38:00.716Z,1.50
2019-01-16T12:40:48.401Z,1.67
2019-01-16T12:43:39.873Z,2.17
2019-01-16T12:46:26.824Z,1.70
2019-01-16T12:49:18.481Z,1.87
2019-01-16T12:52:00.858Z,2.73
2019-01-16T12:54:48.176Z,1.90
2019-01-16T12:57:25.340Z,1.73
2019-01-16T13:00:16.586Z,1.47
2019-01-16T13:03:02.972Z,1.67
2019-01-16T13:05:49.170Z,1.80
2019-01-16T13:08:40.681Z,2.53
2019-01-16T13:11:47.310Z,2.50
2019-01-16T13:14:50.923Z,2.90
2019-01-16T13:17:48.522Z,2.83
2019-01-16T13:20:52.333Z,2.50
2019-01-16T13:23:39.103Z,2.33
2019-01-16T13:26:22.897Z,3.77
2019-01-16T13:29:14.327Z,3.97
2019-01-16T13:32:08.638Z,5.30
2019-01-16T13:35:12.448Z,4.40
2019-01-16T13:38:00.833Z,6.10
2019-01-16T13:40:55.350Z,6.30
2019-01-16T13:43:42.537Z,5.10
2019-01-16T13:46:36.864Z,2.73
2019-01-16T13:49:28.441Z,2.07
2019-01-16T13:52:22.890Z,2.47
2019-01-16T13:55:09.826Z,2.50
2019-01-16T13:57:56.905Z,2.40
2019-01-16T14:00:48.884Z,2.60
2019-01-16T14:03:46.357Z,3.20
2019-01-16T14:06:30.570Z,2.70
2019-01-16T14:09:17.665Z,2.80
2019-01-16T14:12:21.531Z,2.40
2019-01-16T14:15:09.938Z,2.00
2019-01-16T14:17:57.693Z,2.03
2019-01-16T14:20:52.210Z,2.00
2019-01-16T14:23:47.069Z,1.70
2019-01-16T14:26:35.437Z,2.10
2019-01-16T14:29:28.612Z,2.33
2019-01-16T14:32:20.149Z,2.20
2019-01-16T14:35:15.605Z,2.13
2019-01-16T14:38:03.040Z,2.20
2019-01-16T14:40:51.539Z,2.27
2019-01-16T14:43:40.759Z,2.80
2019-01-16T14:46:29.159Z,2.80
2019-01-16T14:49:16.169Z,2.73
2019-01-16T14:51:51.547Z,3.20
2019-01-16T14:54:39.956Z,3.20
2019-01-16T14:57:33.687Z,2.70
2019-01-16T15:00:21.629Z,3.53
2019-01-16T15:03:25.393Z,3.67
2019-01-16T15:06:16.817Z,4.27
2019-01-16T15:09:14.311Z,4.33
2019-01-16T15:12:20.910Z,4.30
2019-01-16T15:15:26.422Z,4.07
2019-01-16T15:18:07.532Z,5.13
2019-01-16T15:20:54.750Z,5.10
2019-01-16T15:23:46.288Z,5.50
2019-01-16T15:26:52.993Z,6.20
2019-01-16T15:29:59.792Z,5.47
2019-01-16T15:32:46.498Z,4.93
2019-01-16T15:35:58.218Z,4.40
2019-01-16T15:38:55.278Z,3.80
2019-01-16T15:41:35.884Z,3.40
2019-01-16T15:44:43.176Z,3.33
2019-01-16T15:47:31.623Z,3.57
2019-01-16T15:50:18.398Z,3.60
2019-01-16T15:53:18.910Z,4.10
2019-01-16T15:56:18.004Z,4.10
2019-01-16T15:59:04.065Z,4.30
2019-01-16T16:01:51.692Z,3.97
2019-01-16T16:04:30.682Z,3.83
2019-01-16T16:07:19.114Z,3.63
2019-01-16T16:10:18.219Z,3.20
2019-01-16T16:13:21.881Z,3.53
2019-01-16T16:16:16.656Z,3.60
2019-01-16T16:19:05.175Z,3.60
2019-01-16T16:21:59.724Z,3.47
2019-01-16T16:24:38.590Z,3.47
2019-01-16T16:27:30.148Z,3.57
2019-01-16T16:30:18.552Z,4.57
2019-01-16T16:33:09.844Z,3.93
2019-01-16T16:36:10.506Z,3.70
2019-01-16T16:39:01.958Z,3.50
2019-01-16T16:41:48.977Z,3.43
2019-01-16T16:44:37.368Z,3.73
2019-01-16T16:47:38.006Z,4.00
2019-01-16T16:50:26.512Z,3.70
2019-01-16T16:53:17.958Z,3.80
2019-01-16T16:56:24.557Z,4.00
2019-01-16T16:59:11.625Z,4.00
2019-01-16T17:01:51.243Z,3.70
2019-01-16T17:04:48.759Z,2.93
2019-01-16T17:07:40.556Z,3.10
2019-01-16T17:10:30.252Z,2.20
2019-01-16T17:13:06.297Z,2.63
2019-01-16T17:16:00.806Z,2.87
2019-01-16T17:18:49.861Z,2.40
2019-01-16T17:21:47.150Z,2.57
2019-01-16T17:24:44.818Z,2.40
2019-01-16T17:27:48.393Z,2.33
2019-01-16T17:30:39.790Z,2.40
2019-01-16T17:33:28.194Z,2.43
2019-01-16T17:36:16.562Z,1.87
2019-01-16T17:38:58.706Z,3.23
2019-01-16T17:41:58.234Z,3.77
2019-01-16T17:44:53.424Z,3.07
2019-01-16T17:47:47.634Z,3.33
2019-01-16T17:50:42.148Z,4.20
2019-01-16T17:53:46.805Z,5.00
2019-01-16T17:56:35.175Z,4.30
2019-01-16T17:59:38.126Z,3.40
2019-01-16T18:02:38.647Z,5.70
2019-01-16T18:05:27.202Z,5.53
2019-01-16T18:08:15.262Z,7.30
2019-01-16T18:11:03.794Z,7.40
2019-01-16T18:14:05.797Z,4.57
2019-01-16T18:16:57.484Z,8.87
2019-01-16T18:19:38.163Z,10.47
2019-01-16T18:22:27.152Z,10.37
2019-01-16T18:25:08.038Z,12.77
2019-01-16T18:27:56.536Z,10.83
2019-01-16T18:31:00.170Z,6.90
2019-01-16T18:34:00.864Z,6.10
2019-01-16T18:37:01.238Z,4.20
2019-01-16T18:39:55.526Z,2.23
2019-01-16T18:42:53.089Z,2.37
2019-01-16T18:45:51.097Z,2.10
2019-01-16T18:49:04.601Z,1.97
2019-01-16T18:52:08.818Z,2.23
2019-01-16T18:54:55.295Z,2.27
2019-01-16T18:57:55.832Z,2.20
2019-01-16T19:00:44.343Z,3.60
2019-01-16T19:03:38.931Z,4.00
2019-01-16T19:06:26.105Z,3.70
2019-01-16T19:09:04.899Z,3.17
2019-01-16T19:11:59.558Z,3.00
2019-01-16T19:14:46.775Z,1.77
2019-01-16T19:17:41.090Z,1.80
2019-01-16T19:20:36.515Z,1.60
2019-01-16T19:23:28.005Z,1.97
2019-01-16T19:26:19.675Z,1.73
2019-01-16T19:29:03.154Z,2.00
2019-01-16T19:31:57.637Z,1.80
2019-01-16T19:34:33.999Z,2.73
2019-01-16T19:37:23.219Z,4.13
2019-01-16T19:40:10.466Z,3.40
2019-01-16T19:42:58.957Z,3.60
2019-01-16T19:45:56.438Z,3.60
2019-01-16T19:48:53.664Z,3.00
2019-01-16T19:51:42.175Z,3.00
2019-01-16T19:54:20.238Z,2.70
2019-01-16T19:57:10.832Z,2.00
2019-01-16T19:59:57.960Z,3.30
2019-01-16T20:02:58.929Z,6.63
2019-01-16T20:05:49.878Z,6.83
2019-01-16T20:08:47.672Z,4.60
2019-01-16T20:11:36.243Z,4.17
2019-01-16T20:14:41.965Z,3.73
2019-01-16T20:17:33.091Z,5.70
2019-01-16T20:20:39.710Z,7.03
2019-01-16T20:23:42.889Z,6.57
2019-01-16T20:26:24.059Z,6.87
2019-01-16T20:29:02.874Z,24.33
2019-01-16T20:31:57.760Z,24.10
2019-01-16T20:34:45.079Z,22.20
2019-01-16T20:37:36.699Z,23.47
2019-01-16T20:40:30.414Z,24.80
2019-01-16T20:43:17.802Z,23.80
2019-01-16T20:46:24.619Z,22.57
2019-01-16T20:49:12.119Z,22.47
2019-01-16T20:51:59.508Z,21.60
2019-01-16T20:54:40.968Z,22.70
2019-01-16T20:57:30.822Z,21.07
2019-01-16T21:00:38.139Z,22.10
2019-01-16T21:03:25.308Z,22.97
2019-01-16T21:06:09.057Z,23.40
2019-01-16T21:08:51.155Z,22.53
2019-01-16T21:11:45.238Z,21.83
2019-01-16T21:14:32.689Z,21.13
2019-01-16T21:17:26.897Z,22.20
2019-01-16T21:20:20.642Z,21.50
2019-01-16T21:23:23.868Z,21.90
2019-01-16T21:26:10.167Z,22.17
2019-01-16T21:28:54.288Z,22.50
2019-01-16T21:31:41.641Z,20.17
2019-01-16T21:34:35.897Z,19.83
2019-01-16T21:37:23.609Z,18.90
2019-01-16T21:40:10.870Z,18.23
2019-01-16T21:42:59.297Z,19.70
2019-01-16T21:46:07.717Z,19.93
2019-01-16T21:49:01.885Z,19.70
2019-01-16T21:51:56.517Z,19.43
2019-01-16T21:54:51.907Z,17.23
2019-01-16T21:57:37.722Z,18.67
2019-01-16T22:00:28.257Z,19.70
2019-01-16T22:03:16.665Z,21.10
2019-01-16T22:06:23.524Z,20.83
2019-01-16T22:09:16.085Z,20.60
2019-01-16T22:12:19.531Z,20.50
2019-01-16T22:15:21.231Z,19.57
2019-01-16T22:18:15.833Z,20.77
2019-01-16T22:21:03.074Z,20.10
2019-01-16T22:23:50.792Z,20.43
2019-01-16T22:26:45.581Z,19.80
2019-01-16T22:29:33.999Z,19.13
2019-01-16T22:32:17.245Z,19.40
2019-01-16T22:35:04.488Z,19.63
2019-01-16T22:37:42.770Z,18.23
2019-01-16T22:40:34.601Z,17.90
2019-01-16T22:43:14.354Z,19.83
2019-01-16T22:45:59.511Z,18.90
2019-01-16T22:48:55.085Z,18.83
2019-01-16T22:51:55.915Z,18.70
2019-01-16T22:54:47.153Z,17.60
2019-01-16T22:57:38.630Z,17.63
2019-01-16T23:00:34.727Z,17.17
2019-01-16T23:03:16.549Z,16.87
2019-01-16T23:06:03.904Z,17.20
2019-01-16T23:08:52.392Z,16.97
2019-01-16T23:11:45.391Z,17.67
2019-01-16T23:14:28.018Z,18.33
2019-01-16T23:17:15.327Z,16.83
2019-01-16T23:20:02.861Z,16.87
2019-01-16T23:22:51.257Z,21.20
2019-01-16T23:25:33.688Z,17.57
2019-01-16T23:28:20.704Z,17.90
2019-01-16T23:31:08.079Z,15.80
2019-01-16T23:33:48.393Z,16.80
2019-01-16T23:36:36.832Z,17.37
2019-01-16T23:39:36.695Z,17.60
2019-01-16T23:42:28.073Z,17.53
2019-01-16T23:45:16.464Z,16.80
2019-01-16T23:48:08.625Z,16.97
2019-01-16T23:50:57.064Z,18.17
2019-01-16T23:53:39.945Z,18.23
2019-01-16T23:56:37.903Z,15.67
2019-01-16T23:59:26.361Z,17.57
